Terminal Aerodrome Forecast
Issued by NWS

Current Version | Previous Version | Graphics & Text | Print | Product List | Glossary On
Versions: 1 2 3 4 5 6 7 8 9 10 11 12 13 14 15 16 17 18 19 20
000
FTUS41 KRLX 231900 AAA
TAFCKB
TAF AMD
KCKB 231922Z 2319/2418 25008KT P6SM SCT040
      TEMPO 2319/2321 29012G25KT 2SM TSRA BKN025CB
     FM232100 27008KT P6SM SCT045
     FM240200 VRB03KT 4SM TSRA BR OVC020CB
     FM240400 VRB03KT 5SM BR VCTS OVC020CB
     FM240500 VRB03KT P6SM OVC020
     FM241000 01005KT P6SM OVC025=

USA.gov is the U.S. government's official web portal to all federal, state and local government web resources and services.